sensor_id;sensor_type;location;lat;lon;timestamp;temperature;humidity
21353;DHT22;10834;52.268;6.770;2022-09-20T00:03:57;15.30;82.00
21353;DHT22;10834;52.268;6.770;2022-09-20T00:06:43;15.30;82.00
21353;DHT22;10834;52.268;6.770;2022-09-20T00:09:29;15.30;82.00
21353;DHT22;10834;52.268;6.770;2022-09-20T00:12:16;15.30;82.00
21353;DHT22;10834;52.268;6.770;2022-09-20T00:15:03;15.20;81.90
21353;DHT22;10834;52.268;6.770;2022-09-20T00:17:50;15.20;81.90
21353;DHT22;10834;52.268;6.770;2022-09-20T00:20:43;15.20;82.00
21353;DHT22;10834;52.268;6.770;2022-09-20T00:23:30;15.20;82.60
21353;DHT22;10834;52.268;6.770;2022-09-20T00:26:16;15.20;81.90
21353;DHT22;10834;52.268;6.770;2022-09-20T00:29:03;15.20;81.90
21353;DHT22;10834;52.268;6.770;2022-09-20T00:31:50;15.20;81.90
21353;DHT22;10834;52.268;6.770;2022-09-20T00:34:36;15.20;82.20
21353;DHT22;10834;52.268;6.770;2022-09-20T00:37:41;15.20;81.90
21353;DHT22;10834;52.268;6.770;2022-09-20T00:40:28;15.20;81.90
21353;DHT22;10834;52.268;6.770;2022-09-20T00:43:16;15.20;81.80
21353;DHT22;10834;52.268;6.770;2022-09-20T00:46:03;15.20;81.90
21353;DHT22;10834;52.268;6.770;2022-09-20T00:48:52;15.20;81.90
21353;DHT22;10834;52.268;6.770;2022-09-20T00:51:51;15.10;81.80
21353;DHT22;10834;52.268;6.770;2022-09-20T00:54:40;15.20;81.90
21353;DHT22;10834;52.268;6.770;2022-09-20T00:57:26;15.10;81.80
21353;DHT22;10834;52.268;6.770;2022-09-20T01:00:13;15.20;81.80
21353;DHT22;10834;52.268;6.770;2022-09-20T01:03:05;15.10;81.80
21353;DHT22;10834;52.268;6.770;2022-09-20T01:05:53;15.10;81.70
21353;DHT22;10834;52.268;6.770;2022-09-20T01:08:41;15.10;81.60
21353;DHT22;10834;52.268;6.770;2022-09-20T01:11:30;15.10;81.60
21353;DHT22;10834;52.268;6.770;2022-09-20T01:14:17;15.10;81.60
21353;DHT22;10834;52.268;6.770;2022-09-20T01:17:08;15.10;81.60
21353;DHT22;10834;52.268;6.770;2022-09-20T01:20:42;15.10;81.60
21353;DHT22;10834;52.268;6.770;2022-09-20T01:26:52;15.00;81.50
21353;DHT22;10834;52.268;6.770;2022-09-20T01:32:45;15.00;81.40
21353;DHT22;10834;52.268;6.770;2022-09-20T01:35:35;15.00;82.10
21353;DHT22;10834;52.268;6.770;2022-09-20T02:06:01;14.90;81.30
21353;DHT22;10834;52.268;6.770;2022-09-20T02:10:04;14.90;81.30
21353;DHT22;10834;52.268;6.770;2022-09-20T02:13:19;14.90;81.40
21353;DHT22;10834;52.268;6.770;2022-09-20T02:31:10;14.80;81.50
21353;DHT22;10834;52.268;6.770;2022-09-20T02:43:50;14.80;82.10
21353;DHT22;10834;52.268;6.770;2022-09-20T02:46:53;14.80;82.40
21353;DHT22;10834;52.268;6.770;2022-09-20T02:59:30;14.70;81.80
21353;DHT22;10834;52.268;6.770;2022-09-20T03:02:27;14.70;81.80
21353;DHT22;10834;52.268;6.770;2022-09-20T03:14:46;14.70;81.80
21353;DHT22;10834;52.268;6.770;2022-09-20T03:17:48;14.70;81.80
21353;DHT22;10834;52.268;6.770;2022-09-20T03:36:24;14.70;81.80
21353;DHT22;10834;52.268;6.770;2022-09-20T03:42:28;14.70;81.80
21353;DHT22;10834;52.268;6.770;2022-09-20T04:04:30;14.60;81.80
21353;DHT22;10834;52.268;6.770;2022-09-20T04:16:39;14.60;81.80
21353;DHT22;10834;52.268;6.770;2022-09-20T04:22:20;14.60;81.80
21353;DHT22;10834;52.268;6.770;2022-09-20T04:25:18;14.60;81.80
21353;DHT22;10834;52.268;6.770;2022-09-20T04:28:14;14.60;81.80
21353;DHT22;10834;52.268;6.770;2022-09-20T04:31:11;14.60;81.80
21353;DHT22;10834;52.268;6.770;2022-09-20T04:34:02;14.60;81.90
21353;DHT22;10834;52.268;6.770;2022-09-20T04:36:58;14.60;81.90
21353;DHT22;10834;52.268;6.770;2022-09-20T04:43:15;14.60;82.00
21353;DHT22;10834;52.268;6.770;2022-09-20T04:46:26;14.60;82.00
21353;DHT22;10834;52.268;6.770;2022-09-20T04:56:06;14.60;82.00
21353;DHT22;10834;52.268;6.770;2022-09-20T04:59:06;14.60;82.00
21353;DHT22;10834;52.268;6.770;2022-09-20T05:02:05;14.60;82.10
21353;DHT22;10834;52.268;6.770;2022-09-20T05:23:40;14.60;82.20
21353;DHT22;10834;52.268;6.770;2022-09-20T05:26:36;14.60;82.10
21353;DHT22;10834;52.268;6.770;2022-09-20T05:29:32;14.60;82.10
21353;DHT22;10834;52.268;6.770;2022-09-20T05:36:07;14.60;82.10
21353;DHT22;10834;52.268;6.770;2022-09-20T05:39:03;14.60;82.10
21353;DHT22;10834;52.268;6.770;2022-09-20T05:41:59;14.60;82.10
21353;DHT22;10834;52.268;6.770;2022-09-20T05:47:49;14.60;82.10
21353;DHT22;10834;52.268;6.770;2022-09-20T05:50:59;14.60;82.10
21353;DHT22;10834;52.268;6.770;2022-09-20T05:54:25;14.50;82.00
21353;DHT22;10834;52.268;6.770;2022-09-20T06:00:13;14.60;82.10
21353;DHT22;10834;52.268;6.770;2022-09-20T06:06:17;14.50;82.00
21353;DHT22;10834;52.268;6.770;2022-09-20T06:12:25;14.50;82.00
21353;DHT22;10834;52.268;6.770;2022-09-20T06:18:26;14.50;82.00
21353;DHT22;10834;52.268;6.770;2022-09-20T06:21:43;14.50;82.00
21353;DHT22;10834;52.268;6.770;2022-09-20T06:24:46;14.50;82.00
21353;DHT22;10834;52.268;6.770;2022-09-20T06:30:35;14.50;82.00
21353;DHT22;10834;52.268;6.770;2022-09-20T06:33:24;14.50;82.00
21353;DHT22;10834;52.268;6.770;2022-09-20T06:36:22;14.60;82.10
21353;DHT22;10834;52.268;6.770;2022-09-20T06:43:11;14.50;82.00
21353;DHT22;10834;52.268;6.770;2022-09-20T06:45:59;14.60;82.20
21353;DHT22;10834;52.268;6.770;2022-09-20T06:48:45;14.60;82.30
21353;DHT22;10834;52.268;6.770;2022-09-20T06:51:36;14.50;82.20
21353;DHT22;10834;52.268;6.770;2022-09-20T06:54:23;14.60;82.30
21353;DHT22;10834;52.268;6.770;2022-09-20T06:57:17;14.60;82.40
21353;DHT22;10834;52.268;6.770;2022-09-20T07:00:05;14.60;82.40
21353;DHT22;10834;52.268;6.770;2022-09-20T07:02:55;14.60;82.60
21353;DHT22;10834;52.268;6.770;2022-09-20T07:05:41;14.60;82.60
21353;DHT22;10834;52.268;6.770;2022-09-20T07:08:27;14.60;82.80
21353;DHT22;10834;52.268;6.770;2022-09-20T07:11:15;14.60;82.90
21353;DHT22;10834;52.268;6.770;2022-09-20T07:14:02;14.60;82.90
21353;DHT22;10834;52.268;6.770;2022-09-20T07:16:48;14.60;83.10
21353;DHT22;10834;52.268;6.770;2022-09-20T07:19:34;14.60;83.20
21353;DHT22;10834;52.268;6.770;2022-09-20T07:22:21;14.60;83.20
21353;DHT22;10834;52.268;6.770;2022-09-20T07:25:08;14.60;83.40
21353;DHT22;10834;52.268;6.770;2022-09-20T07:27:54;14.60;83.40
21353;DHT22;10834;52.268;6.770;2022-09-20T07:30:40;14.60;83.60
21353;DHT22;10834;52.268;6.770;2022-09-20T07:33:26;14.70;83.70
21353;DHT22;10834;52.268;6.770;2022-09-20T07:36:12;14.70;84.60
21353;DHT22;10834;52.268;6.770;2022-09-20T07:38:58;14.70;84.10
21353;DHT22;10834;52.268;6.770;2022-09-20T07:41:45;14.70;84.30
21353;DHT22;10834;52.268;6.770;2022-09-20T07:44:33;14.70;84.40
21353;DHT22;10834;52.268;6.770;2022-09-20T07:47:19;14.80;84.40
21353;DHT22;10834;52.268;6.770;2022-09-20T07:50:06;14.80;84.50
21353;DHT22;10834;52.268;6.770;2022-09-20T07:52:55;14.80;84.50
21353;DHT22;10834;52.268;6.770;2022-09-20T07:55:42;14.80;84.50
21353;DHT22;10834;52.268;6.770;2022-09-20T07:58:29;14.80;84.60
21353;DHT22;10834;52.268;6.770;2022-09-20T08:01:15;14.80;84.70
21353;DHT22;10834;52.268;6.770;2022-09-20T08:04:03;14.90;84.70
21353;DHT22;10834;52.268;6.770;2022-09-20T08:06:50;14.90;84.80
21353;DHT22;10834;52.268;6.770;2022-09-20T08:09:36;15.00;84.80
21353;DHT22;10834;52.268;6.770;2022-09-20T08:12:22;15.00;84.80
21353;DHT22;10834;52.268;6.770;2022-09-20T08:15:08;15.00;84.90
21353;DHT22;10834;52.268;6.770;2022-09-20T08:17:54;15.10;85.00
21353;DHT22;10834;52.268;6.770;2022-09-20T08:20:41;15.10;84.90
21353;DHT22;10834;52.268;6.770;2022-09-20T08:23:27;15.10;84.90
21353;DHT22;10834;52.268;6.770;2022-09-20T08:26:19;15.10;85.00
21353;DHT22;10834;52.268;6.770;2022-09-20T08:29:05;15.20;85.70
21353;DHT22;10834;52.268;6.770;2022-09-20T08:31:51;15.20;84.90
21353;DHT22;10834;52.268;6.770;2022-09-20T08:34:37;15.20;84.70
21353;DHT22;10834;52.268;6.770;2022-09-20T08:37:25;15.30;84.70
21353;DHT22;10834;52.268;6.770;2022-09-20T08:40:12;15.30;84.50
21353;DHT22;10834;52.268;6.770;2022-09-20T08:43:00;15.30;84.40
21353;DHT22;10834;52.268;6.770;2022-09-20T08:45:47;15.30;84.30
21353;DHT22;10834;52.268;6.770;2022-09-20T08:48:33;15.30;84.30
21353;DHT22;10834;52.268;6.770;2022-09-20T08:51:20;15.40;84.30
21353;DHT22;10834;52.268;6.770;2022-09-20T08:54:09;15.40;84.20
21353;DHT22;10834;52.268;6.770;2022-09-20T08:57:05;15.40;84.10
21353;DHT22;10834;52.268;6.770;2022-09-20T08:59:57;15.40;84.00
21353;DHT22;10834;52.268;6.770;2022-09-20T09:02:44;15.50;84.00
21353;DHT22;10834;52.268;6.770;2022-09-20T09:05:42;15.50;84.00
21353;DHT22;10834;52.268;6.770;2022-09-20T09:08:36;15.50;84.10
21353;DHT22;10834;52.268;6.770;2022-09-20T09:11:23;15.50;84.10
21353;DHT22;10834;52.268;6.770;2022-09-20T09:14:49;15.50;84.00
21353;DHT22;10834;52.268;6.770;2022-09-20T09:17:35;15.60;83.90
21353;DHT22;10834;52.268;6.770;2022-09-20T09:20:22;15.60;84.20
21353;DHT22;10834;52.268;6.770;2022-09-20T09:23:22;15.60;83.50
21353;DHT22;10834;52.268;6.770;2022-09-20T09:26:23;15.70;83.40
21353;DHT22;10834;52.268;6.770;2022-09-20T09:29:16;15.70;83.30
21353;DHT22;10834;52.268;6.770;2022-09-20T09:32:23;15.80;83.20
21353;DHT22;10834;52.268;6.770;2022-09-20T09:35:25;15.90;83.10
21353;DHT22;10834;52.268;6.770;2022-09-20T09:38:18;15.90;82.90
21353;DHT22;10834;52.268;6.770;2022-09-20T09:41:20;15.90;82.70
21353;DHT22;10834;52.268;6.770;2022-09-20T09:44:24;16.00;82.60
21353;DHT22;10834;52.268;6.770;2022-09-20T09:47:24;16.00;82.40
21353;DHT22;10834;52.268;6.770;2022-09-20T09:50:22;16.00;82.30
21353;DHT22;10834;52.268;6.770;2022-09-20T09:53:15;16.10;82.10
21353;DHT22;10834;52.268;6.770;2022-09-20T10:02:15;16.20;81.60
21353;DHT22;10834;52.268;6.770;2022-09-20T10:08:53;16.20;81.50
21353;DHT22;10834;52.268;6.770;2022-09-20T10:15:25;16.30;81.00
21353;DHT22;10834;52.268;6.770;2022-09-20T10:28:20;16.30;80.60
21353;DHT22;10834;52.268;6.770;2022-09-20T10:31:44;16.30;80.50
21353;DHT22;10834;52.268;6.770;2022-09-20T10:47:17;16.40;80.40
21353;DHT22;10834;52.268;6.770;2022-09-20T10:56:43;16.40;80.30
21353;DHT22;10834;52.268;6.770;2022-09-20T11:08:22;16.40;80.30
21353;DHT22;10834;52.268;6.770;2022-09-20T11:11:30;16.40;80.20
21353;DHT22;10834;52.268;6.770;2022-09-20T11:14:25;16.40;80.20
21353;DHT22;10834;52.268;6.770;2022-09-20T11:17:37;16.40;80.20
21353;DHT22;10834;52.268;6.770;2022-09-20T11:20:36;16.40;80.20
21353;DHT22;10834;52.268;6.770;2022-09-20T11:26:37;16.50;80.30
21353;DHT22;10834;52.268;6.770;2022-09-20T11:29:36;16.40;80.20
21353;DHT22;10834;52.268;6.770;2022-09-20T11:32:31;16.50;80.30
21353;DHT22;10834;52.268;6.770;2022-09-20T11:38:31;16.50;80.30
21353;DHT22;10834;52.268;6.770;2022-09-20T11:41:29;16.50;80.40
21353;DHT22;10834;52.268;6.770;2022-09-20T11:44:17;16.50;80.40
21353;DHT22;10834;52.268;6.770;2022-09-20T11:47:05;16.50;80.40
21353;DHT22;10834;52.268;6.770;2022-09-20T11:59:06;16.60;80.80
21353;DHT22;10834;52.268;6.770;2022-09-20T12:01:56;16.60;80.70
21353;DHT22;10834;52.268;6.770;2022-09-20T12:04:45;16.60;80.70
21353;DHT22;10834;52.268;6.770;2022-09-20T12:07:39;16.60;80.70
21353;DHT22;10834;52.268;6.770;2022-09-20T12:10:28;16.60;80.50
21353;DHT22;10834;52.268;6.770;2022-09-20T12:13:22;16.60;80.40
21353;DHT22;10834;52.268;6.770;2022-09-20T12:16:16;16.60;80.30
21353;DHT22;10834;52.268;6.770;2022-09-20T12:19:05;16.60;80.20
21353;DHT22;10834;52.268;6.770;2022-09-20T12:24:44;16.70;80.20
21353;DHT22;10834;52.268;6.770;2022-09-20T12:30:19;16.70;80.20
21353;DHT22;10834;52.268;6.770;2022-09-20T12:33:18;16.70;80.20
21353;DHT22;10834;52.268;6.770;2022-09-20T12:36:14;16.70;80.30
21353;DHT22;10834;52.268;6.770;2022-09-20T12:45:00;16.70;80.20
21353;DHT22;10834;52.268;6.770;2022-09-20T12:47:52;16.70;80.30
21353;DHT22;10834;52.268;6.770;2022-09-20T12:50:39;16.70;80.20
21353;DHT22;10834;52.268;6.770;2022-09-20T12:53:57;16.70;80.30
21353;DHT22;10834;52.268;6.770;2022-09-20T12:56:44;16.70;80.20
21353;DHT22;10834;52.268;6.770;2022-09-20T12:59:32;16.70;80.20
21353;DHT22;10834;52.268;6.770;2022-09-20T13:05:39;16.80;80.20
21353;DHT22;10834;52.268;6.770;2022-09-20T13:08:53;16.80;80.10
21353;DHT22;10834;52.268;6.770;2022-09-20T13:11:53;16.70;80.00
21353;DHT22;10834;52.268;6.770;2022-09-20T13:14:40;16.70;80.00
21353;DHT22;10834;52.268;6.770;2022-09-20T13:17:28;16.70;80.10
21353;DHT22;10834;52.268;6.770;2022-09-20T13:20:20;16.80;80.20
21353;DHT22;10834;52.268;6.770;2022-09-20T13:23:18;16.70;80.10
21353;DHT22;10834;52.268;6.770;2022-09-20T13:26:07;16.70;80.10
21353;DHT22;10834;52.268;6.770;2022-09-20T13:28:55;16.70;80.10
21353;DHT22;10834;52.268;6.770;2022-09-20T13:31:43;16.80;80.20
21353;DHT22;10834;52.268;6.770;2022-09-20T13:34:29;16.80;80.20
21353;DHT22;10834;52.268;6.770;2022-09-20T13:37:17;16.70;80.20
21353;DHT22;10834;52.268;6.770;2022-09-20T13:43:35;16.80;80.20
21353;DHT22;10834;52.268;6.770;2022-09-20T13:46:28;16.70;80.20
21353;DHT22;10834;52.268;6.770;2022-09-20T13:49:17;16.70;80.10
21353;DHT22;10834;52.268;6.770;2022-09-20T13:52:27;16.80;80.20
21353;DHT22;10834;52.268;6.770;2022-09-20T14:01:20;16.80;80.10
21353;DHT22;10834;52.268;6.770;2022-09-20T14:04:13;16.80;80.10
21353;DHT22;10834;52.268;6.770;2022-09-20T14:06:59;16.80;80.10
21353;DHT22;10834;52.268;6.770;2022-09-20T14:09:51;16.80;80.00
21353;DHT22;10834;52.268;6.770;2022-09-20T14:12:38;16.80;80.00
21353;DHT22;10834;52.268;6.770;2022-09-20T14:15:31;16.80;80.00
21353;DHT22;10834;52.268;6.770;2022-09-20T14:18:19;16.80;80.00
21353;DHT22;10834;52.268;6.770;2022-09-20T14:21:08;16.80;79.90
21353;DHT22;10834;52.268;6.770;2022-09-20T14:24:05;16.80;79.90
21353;DHT22;10834;52.268;6.770;2022-09-20T14:27:05;16.80;79.90
21353;DHT22;10834;52.268;6.770;2022-09-20T14:29:57;16.80;79.90
21353;DHT22;10834;52.268;6.770;2022-09-20T14:32:50;16.80;79.80
21353;DHT22;10834;52.268;6.770;2022-09-20T14:35:48;16.80;79.80
21353;DHT22;10834;52.268;6.770;2022-09-20T14:38:35;16.80;79.70
21353;DHT22;10834;52.268;6.770;2022-09-20T14:41:36;16.80;79.70
21353;DHT22;10834;52.268;6.770;2022-09-20T14:44:31;16.80;79.70
21353;DHT22;10834;52.268;6.770;2022-09-20T14:47:54;16.80;79.60
21353;DHT22;10834;52.268;6.770;2022-09-20T14:50:45;16.80;79.70
21353;DHT22;10834;52.268;6.770;2022-09-20T14:53:31;16.80;79.80
21353;DHT22;10834;52.268;6.770;2022-09-20T14:56:33;16.80;80.70
21353;DHT22;10834;52.268;6.770;2022-09-20T14:59:22;16.90;80.20
21353;DHT22;10834;52.268;6.770;2022-09-20T15:02:10;16.80;80.20
21353;DHT22;10834;52.268;6.770;2022-09-20T15:04:58;16.80;80.40
21353;DHT22;10834;52.268;6.770;2022-09-20T15:07:46;16.80;80.50
21353;DHT22;10834;52.268;6.770;2022-09-20T15:10:32;16.80;81.30
21353;DHT22;10834;52.268;6.770;2022-09-20T15:13:18;16.80;80.70
21353;DHT22;10834;52.268;6.770;2022-09-20T15:16:04;16.80;80.80
21353;DHT22;10834;52.268;6.770;2022-09-20T15:18:51;16.80;81.60
21353;DHT22;10834;52.268;6.770;2022-09-20T15:21:37;16.80;81.10
21353;DHT22;10834;52.268;6.770;2022-09-20T15:24:23;16.80;81.10
21353;DHT22;10834;52.268;6.770;2022-09-20T15:27:11;16.80;81.20
21353;DHT22;10834;52.268;6.770;2022-09-20T15:29:57;16.80;81.20
21353;DHT22;10834;52.268;6.770;2022-09-20T15:32:43;16.80;81.40
21353;DHT22;10834;52.268;6.770;2022-09-20T15:35:30;16.80;81.50
21353;DHT22;10834;52.268;6.770;2022-09-20T15:38:17;16.80;81.60
21353;DHT22;10834;52.268;6.770;2022-09-20T15:41:03;16.80;81.60
21353;DHT22;10834;52.268;6.770;2022-09-20T15:43:49;16.80;81.60
21353;DHT22;10834;52.268;6.770;2022-09-20T15:46:35;16.80;81.60
21353;DHT22;10834;52.268;6.770;2022-09-20T15:49:21;16.80;81.60
21353;DHT22;10834;52.268;6.770;2022-09-20T15:52:07;16.80;81.60
21353;DHT22;10834;52.268;6.770;2022-09-20T15:54:53;16.80;81.60
21353;DHT22;10834;52.268;6.770;2022-09-20T15:57:44;16.80;81.60
21353;DHT22;10834;52.268;6.770;2022-09-20T16:00:31;16.80;81.60
21353;DHT22;10834;52.268;6.770;2022-09-20T16:03:17;16.80;81.60
21353;DHT22;10834;52.268;6.770;2022-09-20T16:06:05;16.80;81.60
21353;DHT22;10834;52.268;6.770;2022-09-20T16:08:51;16.80;81.50
21353;DHT22;10834;52.268;6.770;2022-09-20T16:11:38;16.80;81.60
21353;DHT22;10834;52.268;6.770;2022-09-20T16:14:24;16.80;81.90
21353;DHT22;10834;52.268;6.770;2022-09-20T16:17:10;16.80;82.10
21353;DHT22;10834;52.268;6.770;2022-09-20T16:19:56;16.80;82.40
21353;DHT22;10834;52.268;6.770;2022-09-20T16:22:43;16.80;81.30
21353;DHT22;10834;52.268;6.770;2022-09-20T16:25:29;16.70;80.40
21353;DHT22;10834;52.268;6.770;2022-09-20T16:28:15;16.70;79.80
21353;DHT22;10834;52.268;6.770;2022-09-20T16:31:01;16.70;79.20
21353;DHT22;10834;52.268;6.770;2022-09-20T16:33:47;16.70;78.50
21353;DHT22;10834;52.268;6.770;2022-09-20T16:36:33;16.60;78.30
21353;DHT22;10834;52.268;6.770;2022-09-20T16:39:21;16.60;78.10
21353;DHT22;10834;52.268;6.770;2022-09-20T16:42:12;16.60;78.10
21353;DHT22;10834;52.268;6.770;2022-09-20T16:44:58;16.60;78.10
21353;DHT22;10834;52.268;6.770;2022-09-20T16:47:44;16.60;78.30
21353;DHT22;10834;52.268;6.770;2022-09-20T16:50:31;16.60;78.40
21353;DHT22;10834;52.268;6.770;2022-09-20T16:53:17;16.60;78.60
21353;DHT22;10834;52.268;6.770;2022-09-20T16:56:03;16.60;78.90
21353;DHT22;10834;52.268;6.770;2022-09-20T16:58:52;16.60;79.40
21353;DHT22;10834;52.268;6.770;2022-09-20T17:01:39;16.60;79.70
21353;DHT22;10834;52.268;6.770;2022-09-20T17:04:25;16.60;80.00
21353;DHT22;10834;52.268;6.770;2022-09-20T17:07:11;16.60;80.20
21353;DHT22;10834;52.268;6.770;2022-09-20T17:09:57;16.60;80.40
21353;DHT22;10834;52.268;6.770;2022-09-20T17:12:46;16.60;80.50
21353;DHT22;10834;52.268;6.770;2022-09-20T17:15:32;16.60;80.60
21353;DHT22;10834;52.268;6.770;2022-09-20T17:18:20;16.60;80.70
21353;DHT22;10834;52.268;6.770;2022-09-20T17:21:09;16.50;80.70
21353;DHT22;10834;52.268;6.770;2022-09-20T17:23:58;16.50;80.60
21353;DHT22;10834;52.268;6.770;2022-09-20T17:26:45;16.50;80.60
21353;DHT22;10834;52.268;6.770;2022-09-20T17:29:32;16.50;80.60
21353;DHT22;10834;52.268;6.770;2022-09-20T17:32:18;16.50;80.70
21353;DHT22;10834;52.268;6.770;2022-09-20T17:35:05;16.50;80.60
21353;DHT22;10834;52.268;6.770;2022-09-20T17:37:51;16.50;80.50
21353;DHT22;10834;52.268;6.770;2022-09-20T17:40:37;16.50;80.50
21353;DHT22;10834;52.268;6.770;2022-09-20T17:43:23;16.50;80.50
21353;DHT22;10834;52.268;6.770;2022-09-20T17:48:57;16.50;80.50
21353;DHT22;10834;52.268;6.770;2022-09-20T17:51:47;16.50;80.40
21353;DHT22;10834;52.268;6.770;2022-09-20T17:54:33;16.50;80.40
21353;DHT22;10834;52.268;6.770;2022-09-20T17:57:19;16.50;80.40
21353;DHT22;10834;52.268;6.770;2022-09-20T18:00:06;16.50;80.40
21353;DHT22;10834;52.268;6.770;2022-09-20T18:02:52;16.50;80.30
21353;DHT22;10834;52.268;6.770;2022-09-20T18:05:38;16.50;80.30
21353;DHT22;10834;52.268;6.770;2022-09-20T18:08:24;16.50;80.30
21353;DHT22;10834;52.268;6.770;2022-09-20T18:11:10;16.50;80.40
21353;DHT22;10834;52.268;6.770;2022-09-20T18:13:57;16.50;80.40
21353;DHT22;10834;52.268;6.770;2022-09-20T18:16:43;16.50;80.40
21353;DHT22;10834;52.268;6.770;2022-09-20T18:19:29;16.40;80.30
21353;DHT22;10834;52.268;6.770;2022-09-20T18:22:19;16.40;80.30
21353;DHT22;10834;52.268;6.770;2022-09-20T18:25:05;16.40;80.30
21353;DHT22;10834;52.268;6.770;2022-09-20T18:27:51;16.40;80.30
21353;DHT22;10834;52.268;6.770;2022-09-20T18:30:38;16.40;80.30
21353;DHT22;10834;52.268;6.770;2022-09-20T18:33:24;16.40;80.30
21353;DHT22;10834;52.268;6.770;2022-09-20T18:36:11;16.40;80.40
21353;DHT22;10834;52.268;6.770;2022-09-20T18:38:57;16.40;80.40
21353;DHT22;10834;52.268;6.770;2022-09-20T18:41:44;16.40;80.40
21353;DHT22;10834;52.268;6.770;2022-09-20T18:44:30;16.40;80.40
21353;DHT22;10834;52.268;6.770;2022-09-20T18:47:18;16.40;80.30
21353;DHT22;10834;52.268;6.770;2022-09-20T18:50:05;16.40;80.40
21353;DHT22;10834;52.268;6.770;2022-09-20T18:52:58;16.40;80.40
21353;DHT22;10834;52.268;6.770;2022-09-20T18:55:44;16.30;80.30
21353;DHT22;10834;52.268;6.770;2022-09-20T18:58:31;16.30;80.40
21353;DHT22;10834;52.268;6.770;2022-09-20T19:04:48;16.30;80.40
21353;DHT22;10834;52.268;6.770;2022-09-20T19:08:11;16.30;80.40
21353;DHT22;10834;52.268;6.770;2022-09-20T19:11:08;16.30;80.40
21353;DHT22;10834;52.268;6.770;2022-09-20T19:14:20;16.30;80.40
21353;DHT22;10834;52.268;6.770;2022-09-20T19:17:10;16.30;80.40
21353;DHT22;10834;52.268;6.770;2022-09-20T19:20:14;16.20;80.40
21353;DHT22;10834;52.268;6.770;2022-09-20T19:29:03;16.20;80.40
21353;DHT22;10834;52.268;6.770;2022-09-20T19:31:57;16.20;80.40
21353;DHT22;10834;52.268;6.770;2022-09-20T19:34:44;16.20;80.50
21353;DHT22;10834;52.268;6.770;2022-09-20T19:38:02;16.20;80.50
21353;DHT22;10834;52.268;6.770;2022-09-20T19:47:12;16.10;80.40
21353;DHT22;10834;52.268;6.770;2022-09-20T19:53:20;16.10;80.40
21353;DHT22;10834;52.268;6.770;2022-09-20T19:56:24;16.10;80.40
21353;DHT22;10834;52.268;6.770;2022-09-20T19:59:11;16.10;80.50
21353;DHT22;10834;52.268;6.770;2022-09-20T20:01:57;16.10;80.50
21353;DHT22;10834;52.268;6.770;2022-09-20T20:04:44;16.10;80.50
21353;DHT22;10834;52.268;6.770;2022-09-20T20:11:05;16.10;80.50
21353;DHT22;10834;52.268;6.770;2022-09-20T20:14:20;16.00;80.40
21353;DHT22;10834;52.268;6.770;2022-09-20T20:20:37;16.00;80.40
21353;DHT22;10834;52.268;6.770;2022-09-20T20:27:05;16.00;80.40
21353;DHT22;10834;52.268;6.770;2022-09-20T20:29:51;15.90;80.30
21353;DHT22;10834;52.268;6.770;2022-09-20T20:32:37;16.00;80.40
21353;DHT22;10834;52.268;6.770;2022-09-20T20:35:24;15.90;80.30
21353;DHT22;10834;52.268;6.770;2022-09-20T20:38:10;16.00;80.40
21353;DHT22;10834;52.268;6.770;2022-09-20T20:40:59;15.90;80.30
21353;DHT22;10834;52.268;6.770;2022-09-20T20:43:51;15.90;80.30
21353;DHT22;10834;52.268;6.770;2022-09-20T20:46:40;15.90;80.30
21353;DHT22;10834;52.268;6.770;2022-09-20T20:49:27;15.90;80.30
21353;DHT22;10834;52.268;6.770;2022-09-20T20:52:13;15.90;80.20
21353;DHT22;10834;52.268;6.770;2022-09-20T20:54:59;15.80;80.20
21353;DHT22;10834;52.268;6.770;2022-09-20T20:57:53;15.80;80.20
21353;DHT22;10834;52.268;6.770;2022-09-20T21:00:42;15.80;80.20
21353;DHT22;10834;52.268;6.770;2022-09-20T21:03:28;15.80;80.20
21353;DHT22;10834;52.268;6.770;2022-09-20T21:06:16;15.80;80.20
21353;DHT22;10834;52.268;6.770;2022-09-20T21:09:04;15.80;80.60
21353;DHT22;10834;52.268;6.770;2022-09-20T21:11:50;15.80;80.20
21353;DHT22;10834;52.268;6.770;2022-09-20T21:14:36;15.70;80.20
21353;DHT22;10834;52.268;6.770;2022-09-20T21:17:22;15.70;80.20
21353;DHT22;10834;52.268;6.770;2022-09-20T21:20:09;15.70;80.20
21353;DHT22;10834;52.268;6.770;2022-09-20T21:22:55;15.70;80.20
21353;DHT22;10834;52.268;6.770;2022-09-20T21:25:41;15.70;80.20
21353;DHT22;10834;52.268;6.770;2022-09-20T21:28:27;15.70;80.20
21353;DHT22;10834;52.268;6.770;2022-09-20T21:31:14;15.60;80.20
21353;DHT22;10834;52.268;6.770;2022-09-20T21:34:01;15.60;80.20
21353;DHT22;10834;52.268;6.770;2022-09-20T21:36:48;15.60;80.30
21353;DHT22;10834;52.268;6.770;2022-09-20T21:39:34;15.60;80.30
21353;DHT22;10834;52.268;6.770;2022-09-20T21:42:20;15.60;80.30
21353;DHT22;10834;52.268;6.770;2022-09-20T21:45:07;15.60;80.40
21353;DHT22;10834;52.268;6.770;2022-09-20T21:47:55;15.60;80.40
21353;DHT22;10834;52.268;6.770;2022-09-20T21:50:41;15.60;80.50
21353;DHT22;10834;52.268;6.770;2022-09-20T21:53:27;15.60;80.50
21353;DHT22;10834;52.268;6.770;2022-09-20T21:56:15;15.50;80.40
21353;DHT22;10834;52.268;6.770;2022-09-20T21:59:03;15.50;80.40
21353;DHT22;10834;52.268;6.770;2022-09-20T22:01:50;15.50;80.40
21353;DHT22;10834;52.268;6.770;2022-09-20T22:04:36;15.50;80.50
21353;DHT22;10834;52.268;6.770;2022-09-20T22:07:22;15.50;80.50
21353;DHT22;10834;52.268;6.770;2022-09-20T22:10:08;15.50;80.50
21353;DHT22;10834;52.268;6.770;2022-09-20T22:12:54;15.50;80.60
21353;DHT22;10834;52.268;6.770;2022-09-20T22:15:41;15.50;80.50
21353;DHT22;10834;52.268;6.770;2022-09-20T22:18:27;15.50;80.50
21353;DHT22;10834;52.268;6.770;2022-09-20T22:21:27;15.40;80.50
21353;DHT22;10834;52.268;6.770;2022-09-20T22:24:14;15.40;80.50
21353;DHT22;10834;52.268;6.770;2022-09-20T22:27:01;15.40;80.50
21353;DHT22;10834;52.268;6.770;2022-09-20T22:29:47;15.40;80.50
21353;DHT22;10834;52.268;6.770;2022-09-20T22:32:33;15.40;80.50
21353;DHT22;10834;52.268;6.770;2022-09-20T22:35:19;15.40;80.50
21353;DHT22;10834;52.268;6.770;2022-09-20T22:38:06;15.40;80.50
21353;DHT22;10834;52.268;6.770;2022-09-20T22:40:56;15.40;80.50
21353;DHT22;10834;52.268;6.770;2022-09-20T22:43:43;15.30;80.50
21353;DHT22;10834;52.268;6.770;2022-09-20T22:46:29;15.30;80.50
21353;DHT22;10834;52.268;6.770;2022-09-20T22:49:16;15.30;80.50
21353;DHT22;10834;52.268;6.770;2022-09-20T22:52:02;15.30;80.50
21353;DHT22;10834;52.268;6.770;2022-09-20T22:54:48;15.30;80.50
21353;DHT22;10834;52.268;6.770;2022-09-20T22:57:34;15.30;80.50
21353;DHT22;10834;52.268;6.770;2022-09-20T23:00:20;15.20;80.50
21353;DHT22;10834;52.268;6.770;2022-09-20T23:03:06;15.20;80.60
21353;DHT22;10834;52.268;6.770;2022-09-20T23:05:53;15.20;80.60
21353;DHT22;10834;52.268;6.770;2022-09-20T23:08:39;15.20;80.60